Nabesna, Alaska
Current Conditions -  °F | °C
As of 6:53 AM on Friday 19 Dec 2014 (Local Time) from PAOR Reporting Station
Light Fog Light Fog  
Wind Chill: -14°   Ceiling: 400
Heat Index: -14°   Visibility: 9mi
Dew Point: -19°   Wind: 0mph
Humidity: 79%   Direction: NA
Pressure: 29.44"   Gusts: NA
Location:  62.4°N, 143°W
Report Text: PAOR 191553Z 00000KT 9SM BCFG BKN004 BKN045 M26/M28 A2944 RMK AO2 SLP050 T12561283
Loading
Personal Weather Stations






























Interactive Weather Map New forecast layout! Learn more

10-Day Weather Forecast

Advertisements
Track Severe Weather on mobile